KSEZ · Kinetic Seas Inc.
$0.02
0.00 (-11.88%)
At close · Sep 1
Going-concern doubt
— flagged Aug 19, 2026
Substantial doubt about the company's ability to continue as a going concern.
“The Company does not currently expect that cash generated from operations will be sufficient to fund its anticipated operating requirements. These conditions raise substantial doubt about the Company's ability to continue as a going concern within one year after the date that these financial statements are issued. Management's plans to alleviate this substantial doubt include continued efforts to raise capital through private placements of equity securities, debt financing arrangements, strategic partnerships, and other financing alternatives. The Company has historically been successful in obtaining funding from investors and lenders and continues to evaluate additional sources of capital to support operations, product development, commercialization efforts, and working capital requirements. However, there can be no assurance that such financing will be available on acceptable terms, if at all.”View the 10-Q filed Aug 19, 2026
Market Cap
$1.47M
Shares
61.17M
Weekly off-exchange (dark pool / OTC) trading volume reported to FINRA under its OTC/ATS Transparency data. ATS volume is executed on alternating trading systems (dark pools); non-ATS OTC is other over-the-counter dealer volume. The off-exchange share is total off-exchange volume as a percentage of consolidated weekly trading volume for the same Monday–Friday week.
Off-Exchange Volume History
| Week Start | ATS Volume | Non-ATS OTC Volume | Total Off-Exchange | % of FINRA Weekly Volume |
|---|---|---|---|---|
| 2026-07-27 | 0 | 125 | 125 | 100.0% |
| 2026-07-20 | 16,300 | 10,580 | 26,880 | 99.9% |
| 2026-07-13 | 0 | 24,610 | 24,610 | 100.0% |
| 2026-07-06 | 0 | 162,005 | 162,005 | 100.0% |
| 2026-06-29 | 0 | 52,100 | 52,100 | 100.0% |
| 2026-06-22 | 0 | 112,202 | 112,202 | 100.0% |
| 2026-06-15 | 0 | 9,000 | 9,000 | 100.0% |
| 2026-06-01 | 0 | 5,501 | 5,501 | 100.0% |
| 2026-05-25 | 0 | 11,398 | 11,398 | 100.0% |
| 2026-05-18 | 22,146 | 219,830 | 241,976 | 100.0% |
| 2026-05-11 | 0 | 5,631 | 5,631 | 100.0% |
| 2026-05-04 | 0 | 7,001 | 7,001 | 100.0% |
| 2026-04-27 | 0 | 16,521 | 16,521 | 100.0% |
| 2026-04-20 | 0 | 176,657 | 176,657 | 100.0% |
| 2026-04-13 | 59,999 | 476,619 | 536,618 | 100.0% |
| 2026-04-06 | 1,000 | 888,841 | 889,841 | 100.0% |
| 2026-03-30 | 139,903 | 1,019,675 | 1,159,578 | 100.0% |
| 2026-03-23 | 83,400 | 1,182,655 | 1,266,055 | 100.0% |
| 2026-03-16 | 21,000 | 471,161 | 492,161 | 100.0% |
| 2026-03-09 | 12,000 | 535,925 | 547,925 | 100.0% |
| 2026-03-02 | 0 | 445,175 | 445,175 | 100.0% |
| 2026-02-23 | 5,427 | 379,163 | 384,590 | 100.0% |
| 2026-02-16 | 0 | 10,750 | 10,750 | 99.5% |
| 2026-02-09 | 0 | 58,958 | 58,958 | 99.9% |
| 2026-02-02 | 25,500 | 170,409 | 195,909 | 100.0% |
| 2026-01-26 | 0 | 125,856 | 125,856 | 100.0% |
| 2026-01-19 | 0 | 64,200 | 64,200 | 100.0% |
| 2026-01-12 | 23,000 | 934,875 | 957,875 | 100.0% |
| 2026-01-05 | 13,010 | 326,312 | 339,322 | 100.0% |
| 2025-12-29 | 0 | 365,557 | 365,557 | 100.0% |
| 2025-12-22 | 0 | 156,535 | 156,535 | 100.0% |
| 2025-12-15 | 0 | 242,373 | 242,373 | 100.0% |
| 2025-12-08 | 0 | 211,110 | 211,110 | 100.0% |
| 2025-12-01 | 3,400 | 342,545 | 345,945 | 100.0% |
| 2025-11-24 | 0 | 65,135 | 65,135 | 100.0% |
| 2025-11-17 | 0 | 265,890 | 265,890 | 100.0% |
| 2025-11-10 | 0 | 716,146 | 716,146 | 100.0% |
| 2025-11-03 | 74,400 | 1,614,829 | 1,689,229 | 100.0% |
| 2025-10-27 | 117,470 | 2,050,408 | 2,167,878 | 100.0% |
| 2025-10-20 | 0 | 67,501 | 67,501 | 100.0% |
| 2025-10-13 | 14,900 | 157,132 | 172,032 | 100.0% |
| 2025-10-06 | 0 | 218,177 | 218,177 | 100.0% |
| 2025-09-29 | 0 | 34,303 | 34,303 | 100.0% |
| 2025-09-22 | 50,000 | 1,303,958 | 1,353,958 | 100.0% |
| 2025-09-15 | 140,000 | 1,727,700 | 1,867,700 | 100.0% |
| 2025-09-08 | 0 | 69,050 | 69,050 | 99.9% |
Showing 1–46 of 46 weeks